Time;durP1;ratioP1;P1;durP2;ratioP2;P2;SDS_P1;SDS_P2;PMS_P1;PMS_P2;Temp;Humidity;BMP_temperature;BMP_pressure;BME280_temperature;BME280_humidity;BME280_pressure;Samples;Min_cycle;Max_cycle;Signal;HPM_P1;HPM_P2
2023/09/02 00:00:21;;;;;;;3.70;1.60;;;;;;;;;;4997642;28;20477;-79
2023/09/02 00:02:47;;;;;;;3.47;1.40;;;16.30;99.90;;;;;;5003806;28;20229;-80
2023/09/02 00:05:12;;;;;;;3.03;1.30;;;16.20;99.90;;;;;;5007225;28;20496;-84
2023/09/02 00:07:38;;;;;;;1.83;1.33;;;16.20;99.90;;;;;;5004768;28;20222;-82
2023/09/02 00:10:04;;;;;;;8.93;1.70;;;16.20;99.90;;;;;;5009150;28;20187;-82
2023/09/02 00:12:30;;;;;;;1.80;1.20;;;16.10;99.90;;;;;;4998987;28;20275;-80
2023/09/02 00:14:55;;;;;;;4.40;1.60;;;16.00;99.90;;;;;;4999914;28;20449;-81
2023/09/02 00:17:21;;;;;;;5.93;1.20;;;16.00;99.90;;;;;;4995676;28;20213;-79
2023/09/02 00:19:46;;;;;;;4.23;1.63;;;15.90;99.90;;;;;;4995306;28;20224;-85
2023/09/02 00:22:12;;;;;;;2.50;1.40;;;15.80;99.90;;;;;;4998657;28;20199;-81
2023/09/02 00:24:38;;;;;;;8.80;1.83;;;15.90;99.90;;;;;;4998031;28;20581;-84
2023/09/02 00:27:04;;;;;;;2.27;1.40;;;15.90;99.90;;;;;;4997565;28;20179;-84
2023/09/02 00:29:30;;;;;;;3.50;1.30;;;;;;;;;;5015833;28;21021;-79
2023/09/02 00:31:56;;;;;;;3.53;1.30;;;;;;;;;;5007626;28;20442;-80
2023/09/02 00:34:22;;;;;;;3.80;1.20;;;15.90;99.90;;;;;;5007556;28;20433;-79
2023/09/02 00:36:48;;;;;;;7.40;1.10;;;15.90;99.90;;;;;;5005995;28;20473;-78
2023/09/02 00:39:13;;;;;;;4.73;1.10;;;15.90;99.90;;;;;;5007013;28;20426;-84
2023/09/02 00:41:46;;;;;;;1.80;0.83;;;16.00;99.90;;;;;;5003692;28;20224;-80
2023/09/02 00:44:12;;;;;;;1.80;1.20;;;16.00;99.90;;;;;;5004961;28;20430;-81
2023/09/02 00:46:38;;;;;;;1.57;1.30;;;16.00;99.90;;;;;;5007783;28;20434;-85
2023/09/02 00:49:03;;;;;;;2.60;1.00;;;15.90;99.90;;;;;;4992692;28;20199;-80
2023/09/02 00:51:29;;;;;;;3.90;1.37;;;16.00;99.90;;;;;;4997252;28;20205;-78
2023/09/02 00:53:55;;;;;;;3.07;1.30;;;16.00;99.90;;;;;;4995855;28;20214;-82
2023/09/02 00:56:22;;;;;;;3.93;1.40;;;16.00;99.90;;;;;;4997778;28;20191;-78
2023/09/02 00:58:47;;;;;;;3.03;1.30;;;15.90;99.90;;;;;;4997878;28;20426;-82
2023/09/02 01:01:13;;;;;;;3.10;1.53;;;15.90;99.90;;;;;;4995962;28;20464;-82
2023/09/02 01:03:40;;;;;;;4.23;1.10;;;16.00;99.90;;;;;;4996112;28;20227;-85
2023/09/02 01:06:05;;;;;;;1.90;1.07;;;15.90;99.90;;;;;;4995841;28;20186;-80
2023/09/02 01:08:32;;;;;;;4.90;1.40;;;15.80;99.90;;;;;;4996907;28;20412;-81
2023/09/02 01:10:59;;;;;;;4.87;1.07;;;15.80;99.90;;;;;;4995824;28;20652;-81
2023/09/02 01:13:25;;;;;;;1.87;1.30;;;15.80;99.90;;;;;;4997753;28;20584;-83
2023/09/02 01:15:54;;;;;;;10.80;1.50;;;15.70;99.90;;;;;;5000503;28;20486;-85
2023/09/02 01:18:21;;;;;;;3.90;1.17;;;15.80;99.90;;;;;;5002586;28;20454;-82
2023/09/02 01:21:15;;;;;;;3.33;1.37;;;15.80;99.90;;;;;;4996984;28;20462;-82
2023/09/02 01:24:15;;;;;;;2.23;1.30;;;15.70;99.90;;;;;;5004095;28;20473;-84
2023/09/02 01:27:03;;;;;;;1.80;1.10;;;15.60;99.90;;;;;;5002047;28;20446;-82
2023/09/02 01:29:32;;;;;;;5.87;1.00;;;15.60;99.90;;;;;;4992336;28;20872;-81
2023/09/02 01:32:01;;;;;;;3.33;1.60;;;15.60;99.90;;;;;;4998128;28;20492;-81
2023/09/02 01:34:30;;;;;;;10.83;1.70;;;15.60;99.90;;;;;;4995011;28;20433;-78
2023/09/02 01:36:57;;;;;;;3.53;1.20;;;15.60;99.90;;;;;;4996445;28;20466;-84
2023/09/02 01:39:25;;;;;;;5.43;1.60;;;15.50;99.90;;;;;;5000869;28;20492;-83
2023/09/02 01:41:52;;;;;;;3.17;2.30;;;15.50;99.90;;;;;;4997268;28;20996;-77
2023/09/02 01:44:18;;;;;;;2.90;2.27;;;15.40;99.90;;;;;;4999137;28;20428;-78
2023/09/02 01:46:46;;;;;;;4.57;2.60;;;15.30;99.90;;;;;;5011714;28;20442;-83
2023/09/02 01:49:12;;;;;;;3.73;2.53;;;15.30;99.90;;;;;;5006547;28;20437;-84
2023/09/02 01:51:39;;;;;;;3.33;2.60;;;15.30;99.90;;;;;;5004294;28;20442;-82
2023/09/02 01:54:06;;;;;;;6.30;1.83;;;15.30;99.90;;;;;;5000070;28;20197;-84
2023/09/02 01:56:32;;;;;;;2.60;1.00;;;15.30;99.90;;;;;;5002555;28;20461;-81
2023/09/02 01:58:59;;;;;;;4.13;1.80;;;15.20;99.90;;;;;;4996533;28;20513;-79
2023/09/02 02:01:25;;;;;;;3.20;1.73;;;15.10;99.90;;;;;;5000157;28;20933;-82
2023/09/02 02:04:09;;;;;;;4.53;2.30;;;15.10;99.90;;;;;;5004082;28;20633;-85
2023/09/02 02:06:36;;;;;;;2.90;1.40;;;15.10;99.90;;;;;;4999765;28;20183;-84
2023/09/02 02:09:04;;;;;;;6.10;2.00;;;15.10;99.90;;;;;;4995270;28;20476;-83
2023/09/02 02:11:34;;;;;;;6.37;2.07;;;15.10;99.90;;;;;;4996770;28;20452;-82
2023/09/02 02:14:04;;;;;;;2.80;2.07;;;15.10;99.90;;;;;;4994797;28;20438;-81
2023/09/02 02:16:30;;;;;;;6.97;2.80;;;15.00;99.90;;;;;;5003577;28;20503;-82
2023/09/02 02:18:57;;;;;;;9.10;1.67;;;15.10;99.90;;;;;;4996736;28;20468;-82
2023/09/02 02:21:23;;;;;;;10.27;2.43;;;15.10;99.90;;;;;;5004931;28;20476;-81
2023/09/02 02:23:49;;;;;;;2.90;1.23;;;15.10;99.90;;;;;;5001886;28;20433;-85
2023/09/02 02:26:15;;;;;;;3.03;1.83;;;15.10;99.90;;;;;;5007855;28;20430;-82
2023/09/02 02:28:41;;;;;;;2.77;2.10;;;15.00;99.90;;;;;;5000069;28;20191;-83
2023/09/02 02:31:07;;;;;;;6.00;1.80;;;14.90;99.90;;;;;;5001060;28;20969;-84
2023/09/02 02:33:33;;;;;;;2.30;1.33;;;14.90;99.90;;;;;;5004999;28;20450;-81
2023/09/02 02:35:58;;;;;;;2.47;1.57;;;14.90;99.90;;;;;;4999635;28;20187;-83
2023/09/02 02:38:24;;;;;;;2.43;2.23;;;14.90;99.90;;;;;;4999939;28;20238;-79
2023/09/02 02:40:49;;;;;;;7.20;2.13;;;14.90;99.90;;;;;;5002327;28;20771;-83
2023/09/02 02:43:15;;;;;;;6.47;2.87;;;15.00;99.90;;;;;;5002973;28;20302;-81
2023/09/02 02:45:43;;;;;;;4.03;2.77;;;15.00;99.90;;;;;;5008411;28;20210;-82
2023/09/02 02:48:15;;;;;;;5.73;2.50;;;15.10;99.90;;;;;;5003445;28;20237;-84
2023/09/02 02:50:40;;;;;;;3.10;2.80;;;15.00;99.90;;;;;;5004919;28;20456;-82
2023/09/02 02:53:07;;;;;;;11.70;3.50;;;15.00;99.90;;;;;;4996471;28;20461;-82
2023/09/02 02:55:33;;;;;;;3.10;2.80;;;15.10;99.90;;;;;;4997038;28;20190;-79
2023/09/02 02:57:58;;;;;;;4.40;2.40;;;15.00;99.90;;;;;;4999687;28;20462;-82
2023/09/02 03:00:24;;;;;;;6.77;2.60;;;15.00;99.90;;;;;;5009999;28;20683;-79
2023/09/02 03:02:52;;;;;;;3.80;2.40;;;15.00;99.90;;;;;;5009803;28;20538;-82
2023/09/02 03:05:19;;;;;;;4.40;2.90;;;15.00;99.90;;;;;;5005928;28;20179;-79
2023/09/02 03:07:45;;;;;;;3.80;2.80;;;;;;;;;;5005522;28;20525;-81
2023/09/02 03:10:11;;;;;;;3.53;2.47;;;15.00;99.90;;;;;;5006335;28;20418;-83
2023/09/02 03:12:36;;;;;;;5.00;1.80;;;15.00;99.90;;;;;;5005546;28;20530;-83
2023/09/02 03:15:03;;;;;;;2.60;1.90;;;14.90;99.90;;;;;;5005258;28;20199;-79
2023/09/02 03:17:28;;;;;;;7.40;2.03;;;14.70;99.90;;;;;;5003368;28;20203;-82
2023/09/02 03:19:54;;;;;;;4.00;2.57;;;14.60;99.90;;;;;;5001118;28;20487;-80
2023/09/02 03:22:19;;;;;;;4.50;2.67;;;14.60;99.90;;;;;;5002305;28;20224;-80
2023/09/02 03:24:45;;;;;;;3.60;1.90;;;14.70;99.90;;;;;;5007724;28;20190;-80
2023/09/02 03:27:10;;;;;;;8.10;2.20;;;;;;;;;;5003122;28;20278;-82
2023/09/02 03:29:36;;;;;;;3.13;2.20;;;14.40;99.90;;;;;;4999341;28;20190;-82
2023/09/02 03:32:02;;;;;;;3.20;2.27;;;14.40;99.90;;;;;;4995511;28;20453;-85
2023/09/02 03:34:27;;;;;;;3.90;2.20;;;14.40;99.90;;;;;;5008435;28;20222;-80
2023/09/02 03:36:53;;;;;;;11.60;2.37;;;14.40;99.90;;;;;;5003703;28;20481;-80
2023/09/02 03:39:18;;;;;;;3.43;2.03;;;14.40;99.90;;;;;;5000703;28;20175;-81
2023/09/02 03:41:47;;;;;;;5.03;2.50;;;14.30;99.90;;;;;;5005434;28;20183;-79
2023/09/02 03:44:12;;;;;;;2.93;2.03;;;14.30;99.90;;;;;;5006970;28;20513;-80
2023/09/02 03:46:38;;;;;;;3.80;2.17;;;14.30;99.90;;;;;;5000522;28;20446;-81
2023/09/02 03:49:03;;;;;;;5.23;2.23;;;14.40;99.90;;;;;;4999106;28;20190;-80
2023/09/02 03:51:29;;;;;;;3.80;2.20;;;14.50;99.90;;;;;;4997269;28;20272;-79
2023/09/02 03:53:54;;;;;;;4.93;1.83;;;14.60;99.90;;;;;;4995989;28;20202;-79
2023/09/02 03:56:20;;;;;;;2.07;1.67;;;14.50;99.90;;;;;;4997915;28;20697;-84
2023/09/02 03:58:46;;;;;;;5.30;1.90;;;14.60;99.90;;;;;;4998856;28;20178;-79
2023/09/02 04:01:12;;;;;;;3.77;1.93;;;14.70;99.90;;;;;;4996960;28;20183;-84
2023/09/02 04:03:38;;;;;;;4.53;2.43;;;14.90;99.90;;;;;;5006618;28;20207;-81
2023/09/02 04:06:04;;;;;;;7.40;2.57;;;14.90;99.90;;;;;;5005102;28;20533;-81
2023/09/02 04:08:34;;;;;;;7.47;3.13;;;14.90;99.90;;;;;;5006571;28;20190;-78
2023/09/02 04:11:00;;;;;;;3.70;3.03;;;;;;;;;;5002588;28;21026;-82
2023/09/02 04:13:28;;;;;;;4.13;2.37;;;15.10;99.90;;;;;;5011767;28;20460;-80
2023/09/02 04:15:55;;;;;;;3.53;2.17;;;15.10;99.90;;;;;;5006133;28;20973;-80
2023/09/02 04:18:21;;;;;;;6.43;2.37;;;15.30;99.90;;;;;;5006523;28;20490;-84
2023/09/02 04:20:47;;;;;;;2.93;2.37;;;15.30;99.90;;;;;;5000687;28;20890;-82
2023/09/02 04:23:12;;;;;;;9.70;2.13;;;15.20;99.90;;;;;;5002592;28;20544;-84
2023/09/02 04:25:51;;;;;;;7.27;2.70;;;15.30;99.90;;;;;;5001452;28;20198;-81
2023/09/02 04:28:17;;;;;;;3.90;2.67;;;15.30;99.90;;;;;;5001220;28;20193;-83
2023/09/02 04:30:44;;;;;;;6.00;3.37;;;15.40;99.90;;;;;;5002980;28;20437;-86
2023/09/02 04:33:10;;;;;;;5.23;2.80;;;15.40;99.90;;;;;;4998678;28;20321;-81
2023/09/02 04:35:45;;;;;;;5.97;3.63;;;15.50;99.90;;;;;;4999636;28;21065;-81
2023/09/02 04:38:11;;;;;;;7.57;3.60;;;15.50;99.90;;;;;;4999187;28;20483;-81
2023/09/02 04:40:38;;;;;;;6.57;4.83;;;15.60;99.90;;;;;;4999343;28;20441;-77
2023/09/02 04:43:05;;;;;;;6.23;4.13;;;17.20;99.90;;;;;;5004486;28;20464;-82
2023/09/02 04:45:39;;;;;;;7.67;4.27;;;15.90;99.90;;;;;;5002080;28;20438;-82
2023/09/02 04:48:06;;;;;;;5.23;4.00;;;15.80;99.90;;;;;;4997640;28;20448;-83
2023/09/02 04:50:33;;;;;;;5.77;3.97;;;15.80;99.90;;;;;;5003327;28;20426;-83
2023/09/02 04:52:59;;;;;;;3.93;3.00;;;15.90;99.90;;;;;;4996601;28;21028;-82
2023/09/02 04:55:25;;;;;;;8.63;3.00;;;15.90;99.90;;;;;;4999537;28;20961;-82
2023/09/02 04:57:52;;;;;;;4.03;2.90;;;15.70;99.90;;;;;;5004614;28;20494;-81
2023/09/02 05:00:18;;;;;;;8.03;3.10;;;15.70;99.90;;;;;;5002960;28;20437;-84
2023/09/02 05:02:47;;;;;;;5.90;2.77;;;15.60;99.90;;;;;;4999105;28;20870;-79
2023/09/02 05:05:17;;;;;;;2.50;1.93;;;15.70;99.90;;;;;;4999438;28;20868;-85
2023/09/02 05:07:42;;;;;;;7.10;4.10;;;15.70;99.90;;;;;;5000435;28;20860;-83
2023/09/02 05:10:08;;;;;;;6.27;3.83;;;15.80;99.90;;;;;;4992323;28;20442;-82
2023/09/02 05:12:34;;;;;;;6.40;4.60;;;;;;;;;;4998361;28;20258;-77
2023/09/02 05:15:00;;;;;;;7.40;4.87;;;15.70;99.90;;;;;;4995915;28;20429;-83
2023/09/02 05:17:26;;;;;;;5.53;5.03;;;15.70;99.90;;;;;;5003784;28;20887;-82
2023/09/02 05:19:52;;;;;;;7.80;4.27;;;15.70;99.90;;;;;;4999576;28;20442;-80
2023/09/02 05:22:17;;;;;;;7.07;4.07;;;15.70;99.90;;;;;;5003810;28;20230;-82
2023/09/02 05:24:43;;;;;;;8.00;4.00;;;15.80;99.90;;;;;;5012581;28;20185;-85
2023/09/02 05:27:09;;;;;;;9.80;4.57;;;16.00;99.90;;;;;;5007804;28;20210;-82
2023/09/02 05:29:35;;;;;;;5.13;3.77;;;;;;;;;;5005542;28;20183;-80
2023/09/02 05:32:01;;;;;;;13.53;4.77;;;;;;;;;;5004843;28;20214;-83
2023/09/02 05:34:26;;;;;;;22.33;5.00;;;;;;;;;;5004379;28;20429;-81
2023/09/02 05:36:52;;;;;;;6.27;3.90;;;20.20;99.90;;;;;;5000249;28;20497;-78
2023/09/02 05:39:18;;;;;;;18.23;4.73;;;;;;;;;;5000021;28;20453;-84
2023/09/02 05:41:46;;;;;;;6.93;3.67;;;20.90;99.90;;;;;;5000734;28;20254;-82
2023/09/02 05:44:12;;;;;;;15.40;4.93;;;21.70;99.90;;;;;;4998927;28;20870;-81
2023/09/02 05:46:38;;;;;;;4.70;3.50;;;22.60;99.90;;;;;;4997430;28;20468;-82
2023/09/02 05:49:04;;;;;;;7.90;3.67;;;24.40;99.90;;;;;;5001034;28;20476;-82
2023/09/02 05:51:29;;;;;;;7.40;3.63;;;26.20;99.90;;;;;;5000039;28;20192;-80
2023/09/02 05:53:55;;;;;;;5.10;3.90;;;26.90;99.90;;;;;;4998439;28;20702;-82
2023/09/02 05:56:21;;;;;;;3.13;2.73;;;27.60;99.90;;;;;;5001325;28;20182;-82
2023/09/02 05:58:46;;;;;;;5.00;3.50;;;28.20;99.90;;;;;;5001496;28;20446;-78
2023/09/02 06:01:12;;;;;;;6.83;3.60;;;28.30;99.90;;;;;;4996770;28;20267;-83
2023/09/02 06:03:38;;;;;;;4.47;3.10;;;;;;;;;;5008101;28;20564;-79
2023/09/02 06:06:11;;;;;;;3.07;2.77;;;28.40;99.90;;;;;;5007132;28;20611;-81
2023/09/02 06:08:37;;;;;;;5.00;3.13;;;;;;;;;;4999455;28;20433;-82
2023/09/02 06:11:03;;;;;;;4.00;3.10;;;29.10;99.90;;;;;;5003765;28;20492;-83
2023/09/02 06:13:29;;;;;;;3.67;3.20;;;29.00;99.90;;;;;;4999963;28;20863;-79
2023/09/02 06:16:03;;;;;;;2.70;2.43;;;28.50;99.90;;;;;;4999237;28;20446;-80
2023/09/02 06:18:29;;;;;;;8.23;3.73;;;29.20;99.90;;;;;;4999088;28;20207;-77
2023/09/02 06:20:55;;;;;;;4.70;3.30;;;30.10;99.90;;;;;;4999627;28;20441;-82
2023/09/02 06:23:22;;;;;;;8.47;2.90;;;29.80;99.90;;;;;;4997295;28;20470;-78
2023/09/02 06:25:56;;;;;;;5.00;3.50;;;30.00;99.90;;;;;;5005172;28;20719;-79
2023/09/02 06:28:21;;;;;;;3.80;2.57;;;31.60;99.90;;;;;;5000950;28;20452;-83
2023/09/02 06:30:47;;;;;;;2.80;2.43;;;32.60;99.30;;;;;;5001207;28;20433;-82
2023/09/02 06:33:12;;;;;;;2.93;2.60;;;33.60;96.90;;;;;;4998525;28;20232;-83
2023/09/02 06:35:38;;;;;;;3.80;2.53;;;34.30;94.30;;;;;;4999166;28;20185;-75
2023/09/02 06:38:03;;;;;;;7.97;2.40;;;32.80;92.50;;;;;;5013527;28;20739;-83
2023/09/02 06:40:29;;;;;;;4.73;2.87;;;32.30;95.00;;;;;;5008638;28;20201;-80
2023/09/02 06:42:55;;;;;;;5.70;2.77;;;32.50;93.70;;;;;;5000754;28;20300;-81
2023/09/02 06:45:21;;;;;;;3.53;3.23;;;32.50;94.30;;;;;;5000583;28;20473;-82
2023/09/02 06:47:46;;;;;;;5.03;2.87;;;33.40;93.00;;;;;;5001538;28;20183;-79
2023/09/02 06:50:12;;;;;;;7.20;3.50;;;33.90;91.40;;;;;;4998161;28;20575;-83
2023/09/02 06:52:37;;;;;;;8.10;3.23;;;33.80;90.70;;;;;;5003576;28;20199;-80
2023/09/02 06:55:03;;;;;;;2.77;2.57;;;34.20;90.20;;;;;;5019702;28;20225;-81
2023/09/02 06:57:29;;;;;;;3.80;3.37;;;36.20;87.00;;;;;;5016378;28;20259;-80
2023/09/02 06:59:55;;;;;;;6.37;3.70;;;;;;;;;;5005008;28;20444;-82
2023/09/02 07:02:20;;;;;;;5.33;4.20;;;36.10;77.10;;;;;;4997156;28;20289;-82
2023/09/02 07:04:49;;;;;;;4.87;4.37;;;35.80;78.00;;;;;;4998335;28;20434;-83
2023/09/02 07:07:14;;;;;;;4.77;4.20;;;35.40;77.20;;;;;;5000883;28;20519;-84
2023/09/02 07:09:40;;;;;;;5.57;5.07;;;36.10;77.60;;;;;;4999099;28;20958;-82
2023/09/02 07:12:06;;;;;;;4.80;4.40;;;35.20;78.10;;;;;;4996630;28;20303;-83
2023/09/02 07:14:31;;;;;;;4.40;4.10;;;34.60;79.30;;;;;;4999208;28;20642;-80
2023/09/02 07:16:57;;;;;;;4.33;3.70;;;33.80;80.70;;;;;;4999294;28;20271;-84
2023/09/02 07:19:24;;;;;;;4.37;4.00;;;34.20;83.00;;;;;;5000160;28;20191;-82
2023/09/02 07:21:49;;;;;;;4.40;4.10;;;34.60;79.40;;;;;;5006576;28;20187;-81
2023/09/02 07:24:15;;;;;;;4.00;3.70;;;33.80;80.80;;;;;;5007401;28;20615;-79
2023/09/02 07:26:40;;;;;;;4.33;3.93;;;33.20;86.30;;;;;;5003306;28;20218;-81
2023/09/02 07:29:06;;;;;;;3.40;3.20;;;34.60;84.60;;;;;;4999948;28;20218;-82
2023/09/02 07:31:32;;;;;;;4.53;4.13;;;;;;;;;;5007596;28;20255;-81
2023/09/02 07:33:58;;;;;;;5.67;4.53;;;35.80;76.20;;;;;;5006022;28;20509;-85
2023/09/02 07:36:23;;;;;;;5.30;4.60;;;37.10;76.10;;;;;;5001352;28;20443;-80
2023/09/02 07:38:49;;;;;;;4.87;4.40;;;36.10;74.20;;;;;;5004468;28;20299;-84
2023/09/02 07:41:14;;;;;;;5.97;4.70;;;35.70;75.50;;;;;;5001654;28;20182;-81
2023/09/02 07:43:40;;;;;;;5.30;4.80;;;36.70;75.80;;;;;;5007846;28;20201;-81
2023/09/02 07:46:05;;;;;;;8.13;4.20;;;36.20;72.50;;;;;;5012834;28;20204;-80
2023/09/02 07:48:31;;;;;;;4.53;4.23;;;34.80;76.00;;;;;;5005565;28;20195;-82
2023/09/02 07:50:57;;;;;;;4.13;3.83;;;34.40;79.90;;;;;;5005220;28;20189;-80
2023/09/02 07:53:22;;;;;;;4.20;3.73;;;33.70;80.40;;;;;;5005940;28;20212;-84
2023/09/02 07:55:47;;;;;;;5.50;3.90;;;34.10;80.60;;;;;;5007028;28;20186;-83
2023/09/02 07:58:13;;;;;;;4.97;4.40;;;34.80;79.00;;;;;;5003286;28;20215;-78
2023/09/02 08:00:39;;;;;;;4.10;3.70;;;34.00;76.90;;;;;;5005295;28;20691;-83
2023/09/02 08:03:05;;;;;;;6.10;4.13;;;33.70;80.10;;;;;;5007352;28;20205;-82
2023/09/02 08:05:30;;;;;;;6.57;4.33;;;32.40;83.70;;;;;;5009446;28;20208;-84
2023/09/02 08:07:56;;;;;;;5.07;3.90;;;32.30;84.30;;;;;;5008524;28;20471;-82
2023/09/02 08:10:22;;;;;;;3.70;3.40;;;32.40;84.00;;;;;;5010604;28;20197;-80
2023/09/02 08:12:48;;;;;;;7.30;4.30;;;33.20;82.00;;;;;;5003087;28;20491;-83
2023/09/02 08:15:14;;;;;;;4.60;4.20;;;33.30;80.30;;;;;;5000782;28;21072;-84
2023/09/02 08:17:41;;;;;;;9.13;4.10;;;34.00;80.50;;;;;;4991480;28;20221;-81
2023/09/02 08:20:08;;;;;;;4.53;4.23;;;34.60;77.90;;;;;;4992872;28;20922;-85
2023/09/02 08:22:34;;;;;;;4.67;4.17;;;33.90;76.10;;;;;;4997123;28;20455;-84
2023/09/02 08:24:59;;;;;;;4.83;4.33;;;34.10;78.00;;;;;;5001895;28;21156;-86
2023/09/02 08:27:25;;;;;;;4.57;4.13;;;34.60;79.10;;;;;;4995383;28;20466;-81
2023/09/02 08:29:52;;;;;;;4.83;4.40;;;35.10;76.00;;;;;;4994857;28;20192;-83
2023/09/02 08:32:18;;;;;;;5.37;4.97;;;;;;;;;;4997412;28;20476;-82
2023/09/02 08:34:43;;;;;;;5.50;5.10;;;34.90;77.70;;;;;;4997843;28;20497;-83
2023/09/02 08:37:09;;;;;;;5.20;4.80;;;35.10;75.70;;;;;;4998035;28;20471;-82
2023/09/02 08:39:34;;;;;;;9.30;5.93;;;34.50;79.50;;;;;;5009399;28;20198;-82
2023/09/02 08:42:00;;;;;;;5.23;4.73;;;34.40;80.60;;;;;;5006101;28;20260;-83
2023/09/02 08:44:35;;;;;;;5.57;4.50;;;34.00;78.30;;;;;;5007994;28;20186;-81
2023/09/02 08:47:02;;;;;;;7.00;4.67;;;34.70;80.30;;;;;;5001963;28;20224;-81
2023/09/02 08:49:29;;;;;;;5.10;4.60;;;34.60;81.00;;;;;;5002112;28;20466;-78
2023/09/02 08:51:56;;;;;;;5.13;4.60;;;35.20;76.00;;;;;;4999652;28;20452;-83
2023/09/02 08:54:22;;;;;;;6.43;4.57;;;36.00;74.70;;;;;;5011463;28;20426;-80
2023/09/02 08:56:48;;;;;;;5.40;5.10;;;37.10;69.50;;;;;;5008508;28;20501;-80
2023/09/02 08:59:14;;;;;;;6.30;5.70;;;37.80;68.70;;;;;;4999677;28;20435;-80
2023/09/02 09:01:45;;;;;;;6.37;5.90;;;36.80;67.30;;;;;;5002105;28;20448;-80
2023/09/02 09:04:13;;;;;;;5.73;5.33;;;35.30;70.30;;;;;;5002342;28;20185;-82
2023/09/02 09:06:39;;;;;;;6.27;4.73;;;34.70;72.60;;;;;;5000229;28;20464;-81
2023/09/02 09:09:08;;;;;;;4.60;4.30;;;34.20;77.10;;;;;;5000987;28;20518;-83
2023/09/02 09:11:36;;;;;;;5.33;4.93;;;33.90;74.30;;;;;;5005789;28;20438;-80
2023/09/02 09:14:03;;;;;;;4.87;4.47;;;34.80;77.90;;;;;;5005777;28;20448;-81
2023/09/02 09:16:34;;;;;;;5.23;4.83;;;35.70;73.40;;;;;;5001018;28;20448;-83
2023/09/02 09:19:01;;;;;;;5.20;4.90;;;36.00;74.30;;;;;;5007360;28;20454;-80
2023/09/02 09:21:27;;;;;;;6.17;4.97;;;35.90;75.00;;;;;;5004036;28;20465;-83
2023/09/02 09:23:53;;;;;;;6.77;6.27;;;;;;;;;;5001872;28;20454;-83
2023/09/02 09:26:21;;;;;;;6.00;5.70;;;36.20;68.70;;;;;;5007207;28;20193;-78
2023/09/02 09:28:59;;;;;;;5.93;5.53;;;35.40;71.70;;;;;;5002055;28;20443;-79
2023/09/02 09:31:26;;;;;;;5.87;5.37;;;34.90;73.30;;;;;;4998869;28;21264;-80
2023/09/02 09:34:01;;;;;;;6.23;5.63;;;35.10;74.20;;;;;;4997529;28;20577;-79
2023/09/02 09:36:28;;;;;;;7.13;6.53;;;35.70;73.20;;;;;;4995337;28;20438;-84
2023/09/02 09:38:56;;;;;;;7.50;5.97;;;36.40;70.20;;;;;;4998879;28;20471;-84
2023/09/02 09:41:23;;;;;;;6.10;5.60;;;36.40;70.80;;;;;;4995067;28;20535;-79
2023/09/02 09:44:10;;;;;;;6.27;5.87;;;36.20;71.00;;;;;;5007466;28;20453;-79
2023/09/02 09:46:49;;;;;;;5.53;5.13;;;36.30;71.70;;;;;;5003750;28;20531;-79
2023/09/02 09:49:24;;;;;;;5.20;4.90;;;36.00;71.30;;;;;;4998152;28;20478;-84
2023/09/02 09:52:01;;;;;;;5.20;4.80;;;35.40;73.90;;;;;;5006859;28;20429;-83
2023/09/02 09:54:39;;;;;;;6.97;6.43;;;35.20;74.80;;;;;;5008919;28;20513;-81
2023/09/02 09:57:06;;;;;;;6.07;4.97;;;34.50;76.30;;;;;;5001362;28;20469;-82
2023/09/02 09:59:35;;;;;;;4.77;4.47;;;34.60;77.90;;;;;;4997965;28;22344;-75
2023/09/02 10:02:16;;;;;;;4.83;4.43;;;34.00;77.90;;;;;;5011226;28;21037;-80
2023/09/02 10:04:50;;;;;;;4.60;4.20;;;33.60;80.70;;;;;;5004923;28;20542;-83
2023/09/02 10:07:20;;;;;;;3.87;3.57;;;33.40;76.50;;;;;;5003379;28;20435;-82
2023/09/02 10:09:46;;;;;;;3.90;3.60;;;33.10;80.80;;;;;;5003788;28;20482;-81
2023/09/02 10:12:15;;;;;;;4.70;3.77;;;33.10;78.50;;;;;;5002572;28;20925;-79
2023/09/02 10:14:42;;;;;;;3.70;3.40;;;33.10;79.10;;;;;;5004866;28;20214;-83
2023/09/02 10:17:09;;;;;;;3.27;3.07;;;31.80;81.00;;;;;;5006994;28;20468;-80
2023/09/02 10:19:35;;;;;;;3.67;2.43;;;30.50;85.10;;;;;;4999198;28;20465;-84
2023/09/02 10:22:02;;;;;;;3.53;2.27;;;29.40;89.30;;;;;;5000712;28;20489;-83
2023/09/02 10:24:43;;;;;;;4.07;2.10;;;28.60;92.30;;;;;;5004605;28;20438;-80
2023/09/02 10:27:18;;;;;;;3.90;2.50;;;27.80;99.60;;;;;;5000093;28;20445;-84
2023/09/02 10:29:46;;;;;;;6.20;2.83;;;27.30;99.90;;;;;;5005850;28;20430;-80
2023/09/02 10:32:12;;;;;;;3.47;2.50;;;27.20;99.90;;;;;;5004125;28;20533;-84
2023/09/02 10:35:07;;;;;;;3.60;2.33;;;27.10;99.90;;;;;;5002379;28;20442;-77
2023/09/02 10:37:53;;;;;;;3.93;2.10;;;27.90;99.90;;;;;;4974052;28;20477;-77
2023/09/02 10:40:24;;;;;;;5.07;2.70;;;26.40;99.90;;;;;;5002381;28;20431;-79
2023/09/02 10:42:50;;;;;;;4.00;2.73;;;26.10;99.90;;;;;;5009918;28;20543;-82
2023/09/02 10:45:19;;;;;;;3.70;2.57;;;26.00;99.90;;;;;;5011174;28;20438;-85
2023/09/02 10:47:47;;;;;;;4.00;2.23;;;26.00;99.90;;;;;;5005533;28;20439;-78
2023/09/02 10:50:18;;;;;;;5.13;2.60;;;26.10;99.90;;;;;;5005301;28;20827;-77
2023/09/02 10:52:43;;;;;;;4.20;2.17;;;26.00;99.90;;;;;;4998088;28;20503;-84
2023/09/02 10:55:10;;;;;;;3.60;2.40;;;25.90;99.90;;;;;;5004367;28;20449;-80
2023/09/02 10:57:50;;;;;;;7.63;2.50;;;25.80;99.90;;;;;;5003634;28;20700;-82
2023/09/02 11:00:21;;;;;;;6.37;2.97;;;25.80;99.90;;;;;;5001263;28;20769;-84
2023/09/02 11:02:52;;;;;;;5.50;2.47;;;25.80;99.90;;;;;;5002848;28;20500;-83
2023/09/02 11:05:22;;;;;;;3.93;1.93;;;25.90;99.90;;;;;;4999063;28;20442;-82
2023/09/02 11:07:48;;;;;;;3.37;2.63;;;26.10;99.90;;;;;;5001014;28;20426;-80
2023/09/02 11:10:15;;;;;;;3.60;2.47;;;26.30;99.90;;;;;;5019346;28;20446;-82
2023/09/02 11:13:07;;;;;;;2.87;2.60;;;26.40;99.90;;;;;;5010029;28;20787;-80
2023/09/02 11:15:34;;;;;;;5.83;2.80;;;26.70;99.90;;;;;;5008285;28;20444;-78
2023/09/02 11:18:32;;;;;;;3.53;2.20;;;26.90;99.90;;;;;;5009738;28;20677;-81
2023/09/02 11:20:58;;;;;;;3.00;2.37;;;27.20;99.90;;;;;;5002611;28;20626;-79
2023/09/02 11:23:24;;;;;;;8.03;2.20;;;27.30;99.90;;;;;;5004982;28;20486;-80
2023/09/02 11:26:00;;;;;;;12.83;2.33;;;27.10;99.90;;;;;;5005759;28;20180;-82
2023/09/02 11:28:27;;;;;;;5.57;2.33;;;27.10;99.90;;;;;;4998085;28;20434;-81
2023/09/02 11:31:12;;;;;;;2.97;2.07;;;27.30;99.90;;;;;;5004306;28;20488;-82
2023/09/02 11:33:44;;;;;;;7.77;2.30;;;27.60;99.90;;;;;;5006498;28;20461;-84
2023/09/02 11:36:18;;;;;;;7.70;2.93;;;27.70;99.90;;;;;;5015583;28;21153;-82
2023/09/02 11:38:44;;;;;;;7.17;2.60;;;27.60;99.90;;;;;;5005085;28;20456;-79
2023/09/02 11:41:20;;;;;;;3.90;2.67;;;27.70;99.90;;;;;;5004014;28;20443;-79
2023/09/02 11:43:45;;;;;;;3.13;2.67;;;28.00;99.90;;;;;;5004983;28;20475;-82
2023/09/02 11:46:12;;;;;;;4.50;2.30;;;28.20;99.90;;;;;;5004205;28;20502;-80
2023/09/02 11:48:37;;;;;;;7.40;2.60;;;28.20;99.90;;;;;;5007141;28;20205;-81
2023/09/02 11:51:03;;;;;;;3.90;2.20;;;28.20;99.90;;;;;;5005910;28;20436;-81
2023/09/02 11:53:30;;;;;;;4.83;2.20;;;28.40;99.90;;;;;;5001467;28;21207;-82
2023/09/02 11:55:56;;;;;;;3.50;2.30;;;28.50;99.90;;;;;;5004738;28;20182;-80
2023/09/02 11:58:22;;;;;;;4.33;2.37;;;28.70;99.90;;;;;;5002719;28;20943;-76
2023/09/02 12:00:48;;;;;;;2.90;2.30;;;28.70;99.90;;;;;;5006145;28;20461;-82
2023/09/02 12:03:24;;;;;;;5.47;2.50;;;28.70;99.90;;;;;;5006311;28;20826;-82
2023/09/02 12:05:52;;;;;;;3.23;2.47;;;28.70;99.90;;;;;;5002582;28;20516;-77
2023/09/02 12:08:18;;;;;;;5.97;2.60;;;28.60;99.90;;;;;;5006396;28;20938;-79
2023/09/02 12:10:45;;;;;;;4.00;2.10;;;28.20;99.90;;;;;;4992453;28;20438;-80
2023/09/02 12:13:11;;;;;;;2.93;2.50;;;28.70;99.90;;;;;;4998936;28;20543;-80
2023/09/02 12:15:37;;;;;;;2.40;1.70;;;;;;;;;;5003393;28;20445;-80
2023/09/02 12:18:03;;;;;;;3.20;2.33;;;29.30;99.90;;;;;;5009557;28;20224;-82
2023/09/02 12:20:29;;;;;;;5.57;2.43;;;29.60;99.90;;;;;;4996544;28;20442;-86
2023/09/02 12:22:54;;;;;;;3.47;2.60;;;29.80;99.90;;;;;;5023540;28;20540;-81
2023/09/02 12:25:22;;;;;;;3.60;2.63;;;29.70;99.90;;;;;;5025080;28;20196;-82
2023/09/02 12:27:48;;;;;;;4.20;2.53;;;29.60;99.90;;;;;;5009467;28;20365;-82
2023/09/02 12:30:27;;;;;;;4.00;2.83;;;29.50;99.90;;;;;;5006656;28;20434;-81
2023/09/02 12:32:55;;;;;;;4.53;2.73;;;28.70;99.90;;;;;;5007658;28;20474;-80
2023/09/02 12:35:21;;;;;;;5.93;2.23;;;28.70;99.90;;;;;;5004022;28;20914;-80
2023/09/02 12:38:06;;;;;;;3.47;2.23;;;28.40;99.90;;;;;;5005785;28;20488;-82
2023/09/02 12:40:32;;;;;;;4.50;2.20;;;28.70;99.90;;;;;;5013111;28;20190;-80
2023/09/02 12:43:00;;;;;;;4.57;2.03;;;29.10;99.90;;;;;;5005552;28;20456;-82
2023/09/02 12:45:29;;;;;;;4.23;2.73;;;29.60;99.90;;;;;;5007739;28;20447;-78
2023/09/02 12:47:59;;;;;;;3.63;2.30;;;29.80;99.90;;;;;;5007635;28;20444;-81
2023/09/02 12:50:25;;;;;;;2.87;2.20;;;29.60;99.60;;;;;;5001935;28;20440;-85
2023/09/02 12:52:58;;;;;;;3.73;1.80;;;29.70;99.90;;;;;;4998905;28;20453;-82
2023/09/02 12:55:25;;;;;;;4.77;2.67;;;29.50;98.70;;;;;;5000828;28;20921;-83